Time;durP1;ratioP1;P1;durP2;ratioP2;P2;SDS_P1;SDS_P2;PMS_P1;PMS_P2;Temp;Humidity;BMP_temperature;BMP_pressure;BME280_temperature;BME280_humidity;BME280_pressure;Samples;Min_cycle;Max_cycle;Signal;HPM_P1;HPM_P2
2022/02/15 00:02:07;;;;;;;13.60;7.57;;;;;;;-9.38;66.46;100147.03;5000637;28;20421;-93
2022/02/15 00:04:33;;;;;;;13.02;8.73;;;;;;;-9.24;66.04;100173.13;4955655;28;20065;-92
2022/02/15 00:07:00;;;;;;;11.77;7.63;;;;;;;-9.21;66.25;100158.50;4986311;28;20054;-96
2022/02/15 00:09:26;;;;;;;13.55;7.82;;;;;;;-9.15;66.39;100155.09;4993369;28;20106;-94
2022/02/15 00:11:52;;;;;;;14.68;7.95;;;;;;;-9.14;66.40;100155.13;4956662;28;20104;-95
2022/02/15 00:14:18;;;;;;;12.75;7.32;;;;;;;-8.99;66.23;100150.97;4987322;28;20105;-94
2022/02/15 00:16:44;;;;;;;10.90;6.15;;;;;;;-8.98;66.49;100139.75;4985110;28;20106;-93
2022/02/15 00:19:10;;;;;;;13.50;7.75;;;;;;;-8.89;66.68;100132.09;4986077;28;20058;-92
2022/02/15 00:21:36;;;;;;;15.02;7.50;;;;;;;-8.81;66.83;100127.84;4987364;28;20046;-93
2022/02/15 00:24:02;;;;;;;16.27;7.32;;;;;;;-8.81;66.73;100144.25;4984777;28;20130;-96
2022/02/15 00:26:28;;;;;;;12.70;7.00;;;;;;;-8.71;66.75;100127.09;4984614;28;20042;-93
2022/02/15 00:28:56;;;;;;;11.05;6.55;;;;;;;-8.59;66.76;100119.44;4984429;28;20058;-95
2022/02/15 00:31:23;;;;;;;13.45;7.70;;;;;;;-8.52;66.54;100125.56;4972741;28;20106;-95
2022/02/15 00:33:48;;;;;;;12.55;7.32;;;;;;;-8.42;66.89;100129.13;4959969;28;20042;-93
2022/02/15 00:36:18;;;;;;;11.18;7.03;;;;;;;-8.29;66.57;100123.13;5004488;28;20054;-94
2022/02/15 00:38:45;;;;;;;10.85;7.65;;;;;;;-8.13;67.06;100127.56;5004917;28;20427;-93
2022/02/15 00:41:11;;;;;;;12.15;6.50;;;;;;;-8.01;66.51;100125.94;4995162;28;20050;-94
2022/02/15 00:43:37;;;;;;;11.10;7.18;;;;;;;-7.94;66.34;100132.91;4998597;28;20091;-90
2022/02/15 00:46:04;;;;;;;14.23;7.65;;;;;;;-7.87;66.14;100132.09;5015796;28;20046;-92
2022/02/15 00:48:30;;;;;;;10.95;6.70;;;;;;;-7.92;66.17;100137.25;4986117;28;20046;-91
2022/02/15 00:50:57;;;;;;;9.10;7.10;;;;;;;-7.82;66.17;100139.06;4963252;28;20049;-91
2022/02/15 00:53:24;;;;;;;9.65;6.50;;;;;;;-7.87;66.25;100119.13;4977100;28;20046;-89
2022/02/15 00:55:49;;;;;;;15.18;7.45;;;;;;;-7.76;66.41;100125.25;4962146;28;20042;-90
2022/02/15 00:58:16;;;;;;;8.93;6.13;;;;;;;-7.94;66.61;100113.00;4995702;28;20049;-90
2022/02/15 01:00:41;;;;;;;13.38;7.63;;;;;;;-7.90;66.99;100113.91;4952911;28;20127;-90
2022/02/15 01:03:08;;;;;;;14.23;6.75;;;;;;;-7.73;67.04;100125.28;4991242;28;20050;-91
2022/02/15 01:05:33;;;;;;;11.77;6.03;;;;;;;-7.65;66.89;100121.00;4965717;28;20050;-92
2022/02/15 01:07:59;;;;;;;11.63;7.53;;;;;;;-7.63;67.09;100123.63;4965009;28;20446;-93
2022/02/15 01:10:25;;;;;;;14.63;7.10;;;;;;;-7.57;67.23;100124.50;4968883;28;20058;-94
2022/02/15 01:12:51;;;;;;;9.93;6.53;;;;;;;-7.55;67.14;100118.47;4971319;28;20525;-94
2022/02/15 01:15:17;;;;;;;10.30;5.78;;;;;;;-7.55;67.01;100118.47;4986484;28;20053;-95
2022/02/15 01:17:44;;;;;;;11.35;6.70;;;;;;;-7.50;66.95;100127.13;4998624;28;20046;-94
2022/02/15 01:20:11;;;;;;;11.63;7.32;;;;;;;-7.61;67.38;100127.94;5001462;28;20042;-95
2022/02/15 01:22:38;;;;;;;15.88;7.22;;;;;;;-7.53;67.29;100140.09;4968350;28;20161;-96
2022/02/15 01:25:04;;;;;;;9.88;6.90;;;;;;;-7.52;67.53;100134.03;4983337;28;20065;-95
2022/02/15 01:27:30;;;;;;;10.73;6.43;;;;;;;-7.48;67.50;100128.03;4948801;28;20046;-94
2022/02/15 01:29:57;;;;;;;12.23;6.85;;;;;;;-7.43;67.43;100115.94;4963859;28;20129;-93
2022/02/15 01:32:23;;;;;;;14.45;6.97;;;;;;;-7.37;67.16;100115.94;4964084;28;20457;-94
2022/02/15 01:34:50;;;;;;;13.57;7.50;;;;;;;-7.36;67.25;100123.75;4983445;28;20568;-94
2022/02/15 01:37:16;;;;;;;14.10;8.93;;;;;;;-7.37;67.35;100118.53;4949924;28;20047;-94
2022/02/15 01:39:42;;;;;;;15.35;7.57;;;;;;;-7.34;67.26;100127.22;5000273;28;20069;-93
2022/02/15 01:42:08;;;;;;;12.32;7.05;;;;;;;-7.40;67.64;100124.59;5003106;28;20050;-94
2022/02/15 01:44:36;;;;;;;13.75;7.75;;;;;;;-7.31;67.43;100115.97;4977941;28;20053;-94
2022/02/15 01:47:04;;;;;;;14.40;8.10;;;;;;;-7.23;67.29;100118.59;5002132;28;20059;-95
2022/02/15 01:49:30;;;;;;;13.93;7.22;;;;;;;-7.20;67.24;100116.88;5002749;28;20050;-93
2022/02/15 01:51:56;;;;;;;12.82;8.45;;;;;;;-7.09;67.13;100130.78;5002086;28;20061;-90
2022/02/15 01:54:22;;;;;;;13.93;8.00;;;;;;;-7.02;66.88;100131.69;4986141;28;20106;-94
2022/02/15 01:56:50;;;;;;;16.08;9.13;;;;;;;-6.92;67.18;100135.16;4975268;28;20046;-95
2022/02/15 01:59:16;;;;;;;14.65;7.55;;;;;;;-7.01;67.11;100130.81;4966403;28;20050;-91
2022/02/15 02:01:44;;;;;;;17.90;8.63;;;;;;;-6.88;67.08;100131.75;4965589;28;20048;-92
2022/02/15 02:06:58;;;;;;;15.48;8.13;;;;;;;-7.01;67.26;100120.41;4969894;28;19924;-89
2022/02/15 02:09:28;;;;;;;20.90;8.73;;;;;;;-6.98;67.57;100124.78;4968437;28;20181;-91
2022/02/15 02:11:54;;;;;;;15.90;9.10;;;;;;;-6.89;67.57;100119.59;4989970;28;20070;-96
2022/02/15 02:14:27;;;;;;;14.82;9.05;;;;;;;-6.87;67.28;100092.75;4959420;23;20585;-94
2022/02/15 02:16:54;;;;;;;14.98;8.65;;;;;;;-6.84;67.06;100091.91;5004534;28;20047;-94
2022/02/15 02:19:25;;;;;;;20.42;8.65;;;;;;;-6.77;66.87;100085.84;4982688;28;20102;-92
2022/02/15 02:21:53;;;;;;;14.80;9.18;;;;;;;-6.66;66.64;100111.84;4967884;28;20409;-93
2022/02/15 02:24:19;;;;;;;17.77;9.43;;;;;;;-6.65;66.84;100108.41;4953237;28;20093;-90
2022/02/15 02:26:48;;;;;;;21.85;8.45;;;;;;;-6.65;66.75;100103.19;4985842;28;20126;-90
2022/02/15 02:29:14;;;;;;;18.35;9.85;;;;;;;-6.84;66.60;100084.09;4957048;28;20049;-89
2022/02/15 02:31:44;;;;;;;13.77;7.47;;;;;;;-6.90;66.79;100092.72;4954819;28;20088;-94
2022/02/15 02:34:11;;;;;;;15.20;9.25;;;;;;;-7.00;67.03;100075.38;4950572;28;20050;-94
2022/02/15 02:36:46;;;;;;;16.80;8.55;;;;;;;-6.78;67.25;100102.28;4982964;28;20553;-95
2022/02/15 02:39:38;;;;;;;12.57;8.07;;;;;;;-6.65;66.93;100100.59;4956725;28;20073;-94
2022/02/15 02:42:04;;;;;;;9.18;6.60;;;;;;;-6.74;67.11;100091.03;4950258;28;20051;-94
2022/02/15 02:44:30;;;;;;;10.60;7.93;;;;;;;-6.83;67.11;100056.38;4971055;28;20043;-93
2022/02/15 02:46:57;;;;;;;20.00;10.52;;;;;;;-6.78;67.00;100070.22;4989273;28;20476;-93
2022/02/15 02:49:27;;;;;;;17.02;9.55;;;;;;;-6.79;67.36;100069.38;4980244;28;20043;-93
2022/02/15 02:51:54;;;;;;;15.32;8.75;;;;;;;-6.67;67.00;100087.56;4964534;28;20057;-92
2022/02/15 02:54:20;;;;;;;18.58;9.55;;;;;;;-6.78;67.30;100068.50;4979539;28;20506;-93
2022/02/15 02:56:56;;;;;;;18.58;10.57;;;;;;;-6.71;67.27;100092.78;4966925;28;20133;-93
2022/02/15 02:59:22;;;;;;;24.83;11.02;;;;;;;-6.76;67.54;100074.56;4948414;28;20043;-94
2022/02/15 03:01:48;;;;;;;18.80;10.52;;;;;;;-6.70;67.45;100079.78;4964325;28;20057;-94
2022/02/15 03:04:15;;;;;;;23.15;12.52;;;;;;;-6.72;67.83;100089.31;4981125;28;20055;-91
2022/02/15 03:06:41;;;;;;;21.38;10.85;;;;;;;-6.67;67.89;100095.38;4964207;28;20069;-92
2022/02/15 03:09:08;;;;;;;20.85;9.88;;;;;;;-6.69;68.04;100084.13;4956779;28;20113;-92
2022/02/15 03:11:34;;;;;;;24.30;12.20;;;;;;;-6.76;68.11;100084.97;4948492;28;20054;-88
2022/02/15 03:14:01;;;;;;;14.52;8.27;;;;;;;-6.71;68.30;100088.44;4946892;28;20051;-92
2022/02/15 03:16:35;;;;;;;17.38;9.63;;;;;;;-6.66;68.23;100085.84;4947674;28;20125;-91
2022/02/15 03:19:02;;;;;;;23.27;10.70;;;;;;;-6.64;68.24;100090.19;4966432;28;20054;-90
2022/02/15 03:21:28;;;;;;;21.38;9.80;;;;;;;-6.70;68.34;100074.56;4963836;28;20406;-92
2022/02/15 03:23:54;;;;;;;21.90;12.38;;;;;;;-6.62;68.46;100084.97;4961017;28;20046;-85
2022/02/15 03:26:20;;;;;;;29.55;13.20;;;;;;;-6.57;68.60;100092.81;4976408;28;20421;-90
2022/02/15 03:28:46;;;;;;;25.30;13.80;;;;;;;-6.62;68.66;100074.56;4946175;28;20528;-85
2022/02/15 03:31:13;;;;;;;25.20;13.05;;;;;;;-6.50;68.86;100086.75;4980561;28;20064;-88
2022/02/15 03:33:41;;;;;;;28.48;14.07;;;;;;;-6.52;68.77;100093.66;4946245;28;20154;-92
2022/02/15 03:36:07;;;;;;;29.58;13.82;;;;;;;-6.48;68.90;100087.59;4943743;28;20149;-86
2022/02/15 03:38:36;;;;;;;34.45;14.95;;;;;;;-6.49;68.61;100088.47;4975975;28;20042;-85
2022/02/15 03:44:16;;;;;;;33.38;15.43;;;;;;;-6.48;68.68;100092.81;4962556;28;20050;-82
2022/02/15 03:46:46;;;;;;;25.30;12.88;;;;;;;-6.53;68.67;100089.34;4944816;28;20135;-84
2022/02/15 03:49:12;;;;;;;30.33;14.82;;;;;;;-6.45;69.16;100100.63;4962013;28;20502;-81
2022/02/15 03:51:42;;;;;;;43.45;17.52;;;;;;;-6.50;68.88;100097.16;4944038;28;20125;-91
2022/02/15 03:54:09;;;;;;;44.78;18.40;;;;;;;-6.44;68.99;100102.34;4956632;29;20515;-83
2022/02/15 03:56:35;;;;;;;44.38;20.17;;;;;;;-6.40;68.82;100106.69;4955334;28;20570;-80
2022/02/15 03:59:02;;;;;;;57.10;21.73;;;;;;;-6.47;69.22;100117.94;4940227;29;20100;-89
2022/02/15 04:01:28;;;;;;;50.45;23.88;;;;;;;-6.49;69.73;100124.88;4924686;29;20515;-82
2022/02/15 04:03:54;;;;;;;51.83;22.25;;;;;;;-6.45;69.83;100122.28;4940241;29;20114;-84
2022/02/15 04:06:22;;;;;;;53.47;22.55;;;;;;;-6.28;70.68;100114.50;4907785;29;20051;-87
2022/02/15 04:08:48;;;;;;;62.60;24.77;;;;;;;-6.28;69.99;100114.50;4926037;29;20055;-89
2022/02/15 04:11:14;;;;;;;58.03;24.83;;;;;;;-6.38;70.35;100115.38;4926088;29;20043;-85
2022/02/15 04:13:41;;;;;;;54.88;24.60;;;;;;;-6.36;71.14;100105.81;4946406;29;20074;-91
2022/02/15 04:16:08;;;;;;;70.82;25.55;;;;;;;-6.37;71.04;100120.56;4899210;29;20063;-91
2022/02/15 04:18:35;;;;;;;60.75;22.17;;;;;;;-6.45;71.32;100105.81;4907577;29;20131;-87
2022/02/15 04:21:02;;;;;;;64.55;26.95;;;;;;;-6.40;71.14;100101.47;4909224;29;20135;-87
2022/02/15 04:23:30;;;;;;;53.97;24.10;;;;;;;-6.21;70.86;100107.56;4911570;29;20152;-87
2022/02/15 04:25:56;;;;;;;45.75;21.02;;;;;;;-6.21;70.60;100105.81;4910882;29;20130;-86
2022/02/15 04:28:32;;;;;;;41.47;17.63;;;;;;;-6.14;70.14;100110.16;4927246;29;20047;-86
2022/02/15 04:31:00;;;;;;;52.95;20.83;;;;;;;-6.04;70.03;100116.22;4923457;29;20054;-87
2022/02/15 04:33:26;;;;;;;39.22;17.90;;;;;;;-6.09;69.95;100114.47;4927228;29;20107;-86
2022/02/15 04:35:53;;;;;;;41.67;17.90;;;;;;;-6.00;70.24;100117.09;4931700;29;20466;-85
2022/02/15 04:38:20;;;;;;;45.05;17.67;;;;;;;-6.01;70.25;100117.97;4927265;29;20071;-85
2022/02/15 04:40:46;;;;;;;38.70;15.38;;;;;;;-6.00;69.93;100109.28;4929242;29;20102;-83
2022/02/15 04:43:21;;;;;;;36.08;13.95;;;;;;;-5.90;69.66;100108.38;4891645;29;20075;-86
2022/02/15 04:45:47;;;;;;;23.35;9.90;;;;;;;-5.89;69.19;100107.50;4907482;29;20056;-85
2022/02/15 04:48:17;;;;;;;23.15;11.93;;;;;;;-5.68;69.22;100111.81;4906085;29;20057;-86
2022/02/15 04:50:43;;;;;;;33.53;10.27;;;;;;;-5.81;68.52;100121.38;4902436;29;20052;-85
2022/02/15 04:53:09;;;;;;;20.88;9.65;;;;;;;-5.78;68.91;100116.19;4903364;29;20080;-83
2022/02/15 04:55:35;;;;;;;19.42;8.25;;;;;;;-5.70;68.62;100118.78;4887337;29;20068;-85
2022/02/15 04:58:04;;;;;;;19.73;8.45;;;;;;;-5.64;68.14;100114.41;4869643;29;20056;-82
2022/02/15 05:00:41;;;;;;;15.68;6.80;;;;;;;-5.63;67.92;100123.09;4881510;29;20100;-86
2022/02/15 05:03:34;;;;;;;18.90;8.15;;;;;;;-5.70;68.06;100130.03;4880696;29;20147;-87
2022/02/15 05:06:01;;;;;;;20.70;8.82;;;;;;;-5.68;68.33;100128.31;4904424;29;20044;-89
2022/02/15 05:08:28;;;;;;;23.13;9.57;;;;;;;-5.61;68.52;100119.59;4870862;29;20112;-87
2022/02/15 05:11:00;;;;;;;23.98;9.02;;;;;;;-5.43;67.69;100125.66;4853531;29;20071;-87
2022/02/15 05:13:33;;;;;;;27.65;8.85;;;;;;;-5.49;67.61;100129.16;4890969;29;20047;-90
2022/02/15 05:16:09;;;;;;;25.38;8.75;;;;;;;-5.42;67.70;100140.41;4919163;29;20058;-86
2022/02/15 05:18:45;;;;;;;18.08;7.50;;;;;;;-5.22;67.34;100132.53;4938755;29;20506;-89
2022/02/15 05:21:17;;;;;;;25.98;7.88;;;;;;;-5.22;66.77;100136.00;4939301;29;20047;-84
2022/02/15 05:23:49;;;;;;;21.55;7.65;;;;;;;-5.29;66.95;100139.50;4970259;28;20057;-82
2022/02/15 05:26:16;;;;;;;19.27;7.13;;;;;;;-5.16;66.54;100143.78;4938745;28;20106;-86
2022/02/15 05:28:54;;;;;;;14.55;7.10;;;;;;;-5.28;66.86;100127.34;4938972;29;20039;-85
2022/02/15 05:31:21;;;;;;;17.52;6.80;;;;;;;-5.06;66.52;100146.38;4956519;28;20058;-82
2022/02/15 05:33:47;;;;;;;14.18;6.65;;;;;;;-5.06;66.30;100133.34;4929389;29;20027;-86
2022/02/15 05:36:15;;;;;;;18.65;7.72;;;;;;;-5.03;65.88;100143.78;4927496;29;20071;-85
2022/02/15 05:38:45;;;;;;;14.60;6.88;;;;;;;-5.09;66.12;100122.94;4965127;28;20507;-89
2022/02/15 05:41:12;;;;;;;16.88;6.65;;;;;;;-5.08;66.45;100124.66;4923840;29;20047;-87
2022/02/15 05:43:40;;;;;;;19.35;7.53;;;;;;;-4.79;66.09;100121.91;4938771;29;20049;-87
2022/02/15 05:46:10;;;;;;;18.05;7.72;;;;;;;-4.68;65.35;100120.97;4938842;29;20047;-85
2022/02/15 05:48:44;;;;;;;19.30;8.48;;;;;;;-4.54;65.07;100127.88;4953208;28;20087;-87
2022/02/15 05:51:33;;;;;;;19.05;8.35;;;;;;;-4.45;64.18;100127.78;4960392;28;20051;-84
2022/02/15 05:54:14;;;;;;;14.57;7.20;;;;;;;-4.48;63.99;100133.03;4924436;29;20047;-88
2022/02/15 05:56:41;;;;;;;21.70;9.23;;;;;;;-4.41;64.09;100106.00;4923045;29;20422;-87
2022/02/15 05:59:20;;;;;;;20.63;8.40;;;;;;;-4.21;63.74;100125.03;4938437;29;20039;-87
2022/02/15 06:01:57;;;;;;;18.88;8.82;;;;;;;-4.13;63.17;100130.19;4938339;29;20054;-85
2022/02/15 06:04:35;;;;;;;17.77;7.95;;;;;;;-4.10;63.53;100118.81;4922598;29;20138;-87
2022/02/15 06:07:06;;;;;;;23.08;9.48;;;;;;;-4.03;63.49;100118.75;4908085;29;20526;-90
2022/02/15 06:09:33;;;;;;;25.17;11.43;;;;;;;-3.92;63.22;100123.91;4938182;29;20047;-85
2022/02/15 06:11:59;;;;;;;30.95;11.20;;;;;;;-3.96;63.05;100119.59;4938000;29;20055;-85
2022/02/15 06:14:48;;;;;;;26.25;10.50;;;;;;;-4.02;63.13;100137.94;4929730;29;20063;-85
2022/02/15 06:17:16;;;;;;;29.50;11.30;;;;;;;-3.85;62.85;100132.56;4954076;28;20066;-86
2022/02/15 06:19:47;;;;;;;25.88;10.55;;;;;;;-3.98;62.74;100144.88;4909427;29;20102;-84
2022/02/15 06:22:14;;;;;;;31.40;11.20;;;;;;;-3.94;63.28;100121.31;4938045;29;20047;-84
2022/02/15 06:24:41;;;;;;;39.28;14.13;;;;;;;-3.77;62.91;100138.56;4922488;29;20518;-83
2022/02/15 06:27:37;;;;;;;32.72;12.60;;;;;;;-3.61;62.34;100136.66;4919079;29;20039;-84
2022/02/15 06:30:12;;;;;;;33.97;14.50;;;;;;;-3.62;62.12;100148.00;4947578;29;20053;-86
2022/02/15 06:32:45;;;;;;;36.83;14.85;;;;;;;-3.63;62.11;100161.97;4946316;29;20050;-84
2022/02/15 06:35:14;;;;;;;34.92;15.20;;;;;;;-3.67;62.06;100146.31;4970206;29;20058;-84
2022/02/15 06:37:46;;;;;;;34.30;14.77;;;;;;;-3.50;62.50;100150.50;4932225;29;20662;-85
2022/02/15 06:40:13;;;;;;;39.28;14.23;;;;;;;-3.38;62.42;100147.78;4939284;29;20043;-85
2022/02/15 06:42:44;;;;;;;40.90;15.10;;;;;;;-3.44;61.37;100140.00;4925555;29;20083;-86
2022/02/15 06:45:10;;;;;;;44.88;16.27;;;;;;;-3.47;61.34;100137.41;4939898;28;20043;-83
2022/02/15 06:47:36;;;;;;;39.30;15.27;;;;;;;-3.38;61.74;100133.84;4939243;29;20078;-85
2022/02/15 06:50:05;;;;;;;40.92;15.85;;;;;;;-3.14;61.11;100135.31;4923065;28;20486;-85
2022/02/15 06:52:50;;;;;;;41.17;15.07;;;;;;;-3.04;60.65;100139.56;4942535;29;20066;-84
2022/02/15 06:55:22;;;;;;;48.58;17.58;;;;;;;-3.04;60.99;100132.56;4942176;29;20106;-85
2022/02/15 06:57:48;;;;;;;41.17;15.10;;;;;;;-2.94;60.65;100135.94;4941286;29;20051;-85
2022/02/15 07:00:17;;;;;;;42.15;16.73;;;;;;;-2.93;60.15;100145.53;4956690;28;20170;-84
2022/02/15 07:02:43;;;;;;;38.03;14.50;;;;;;;-3.06;60.61;100146.53;4959013;28;20047;-84
2022/02/15 07:05:12;;;;;;;44.28;15.48;;;;;;;-3.16;60.41;100145.78;4949651;29;20542;-85
2022/02/15 07:07:39;;;;;;;48.83;16.90;;;;;;;-3.31;61.18;100146.84;4949857;29;20107;-88
2022/02/15 07:10:12;;;;;;;34.70;15.15;;;;;;;-3.21;61.18;100134.50;4944512;29;20062;-89
2022/02/15 07:12:54;;;;;;;31.88;12.63;;;;;;;-3.17;61.10;100138.81;4956161;29;20043;-84
2022/02/15 07:15:34;;;;;;;50.90;18.70;;;;;;;-3.14;60.86;100140.53;4944897;29;20066;-84
2022/02/15 07:18:05;;;;;;;43.50;17.23;;;;;;;-3.25;61.29;100130.19;4928512;29;20520;-85
2022/02/15 07:20:57;;;;;;;58.22;20.10;;;;;;;-3.24;61.70;100135.41;4945461;28;20410;-85
2022/02/15 07:23:29;;;;;;;60.80;20.70;;;;;;;-3.18;61.96;100124.03;4958116;28;20039;-85
2022/02/15 07:26:21;;;;;;;49.47;19.42;;;;;;;-3.05;61.46;100122.13;4939212;29;20055;-86
2022/02/15 07:29:10;;;;;;;54.13;20.08;;;;;;;-2.88;61.09;100121.91;4930033;29;20047;-87
2022/02/15 07:31:53;;;;;;;49.50;19.35;;;;;;;-2.89;61.48;100126.28;4924374;29;20058;-86
2022/02/15 07:34:19;;;;;;;44.55;14.73;;;;;;;-2.86;60.82;100123.59;4909141;29;20138;-87
2022/02/15 07:36:47;;;;;;;48.20;17.98;;;;;;;-2.83;60.46;100120.97;4955706;29;20473;-85
2022/02/15 07:39:13;;;;;;;46.22;16.13;;;;;;;-3.02;60.60;100127.31;4955866;28;20081;-86
2022/02/15 07:41:40;;;;;;;56.47;14.80;;;;;;;-3.10;60.99;100123.94;4958098;29;20081;-84
2022/02/15 07:44:06;;;;;;;39.42;14.90;;;;;;;-3.13;61.01;100116.13;4909371;29;20082;-86
2022/02/15 07:46:40;;;;;;;37.55;15.35;;;;;;;-3.00;61.46;100129.03;4956900;28;20649;-86
2022/02/15 07:49:07;;;;;;;40.28;14.73;;;;;;;-3.12;60.91;100120.44;4923933;29;20146;-85
2022/02/15 07:51:33;;;;;;;35.35;12.65;;;;;;;-3.27;61.29;100114.53;4955925;28;20051;-86
2022/02/15 07:53:59;;;;;;;24.70;11.43;;;;;;;-3.34;61.36;100107.66;4909226;29;20070;-87
2022/02/15 07:56:25;;;;;;;27.60;11.73;;;;;;;-3.30;61.84;100119.81;4929625;29;20054;-84
2022/02/15 07:58:51;;;;;;;26.65;10.93;;;;;;;-3.30;61.63;100105.88;4945356;29;20051;-87
2022/02/15 08:01:17;;;;;;;33.35;12.00;;;;;;;-3.41;61.84;100092.91;4913021;29;20047;-87
2022/02/15 08:03:43;;;;;;;32.17;13.07;;;;;;;-3.12;61.81;100112.59;4943464;29;20039;-87
2022/02/15 08:06:09;;;;;;;33.88;11.00;;;;;;;-3.11;61.36;100119.59;4925524;29;20638;-85
2022/02/15 08:08:35;;;;;;;34.92;12.68;;;;;;;-3.09;61.14;100112.56;4923593;28;20054;-85
2022/02/15 08:11:01;;;;;;;29.40;11.18;;;;;;;-3.21;61.11;100104.00;4956669;28;20074;-85
2022/02/15 08:13:34;;;;;;;30.10;11.05;;;;;;;-3.20;61.61;100112.69;4939072;29;20137;-85
2022/02/15 08:16:01;;;;;;;23.73;8.93;;;;;;;-3.07;61.33;100095.13;4935756;29;20064;-85
2022/02/15 08:18:28;;;;;;;30.08;11.55;;;;;;;-3.13;61.26;100100.44;4920479;29;20058;-88
2022/02/15 08:20:54;;;;;;;28.27;11.15;;;;;;;-3.01;61.11;100106.38;4920360;29;20051;-84
2022/02/15 08:23:20;;;;;;;33.05;11.23;;;;;;;-2.94;61.34;100102.78;4936462;29;20051;-88
2022/02/15 08:25:47;;;;;;;23.95;8.82;;;;;;;-2.93;61.07;100103.69;4920303;29;20052;-86
2022/02/15 08:28:14;;;;;;;27.80;9.98;;;;;;;-3.06;61.60;100100.34;4936461;29;20055;-85
2022/02/15 08:30:40;;;;;;;30.25;10.82;;;;;;;-3.21;61.38;100104.00;4920304;29;20046;-88
2022/02/15 08:33:06;;;;;;;19.00;8.75;;;;;;;-3.09;61.48;100092.53;4935797;29;20082;-85
2022/02/15 08:35:33;;;;;;;27.48;9.90;;;;;;;-2.89;61.43;100099.28;4936248;29;20083;-85
2022/02/15 08:38:01;;;;;;;21.42;10.38;;;;;;;-2.70;61.09;100095.50;4935698;29;20075;-86
2022/02/15 08:40:27;;;;;;;23.65;9.80;;;;;;;-2.61;60.62;100099.75;4904643;29;20048;-86
2022/02/15 08:42:53;;;;;;;27.88;10.73;;;;;;;-2.61;60.49;100086.66;4905333;29;20132;-88
2022/02/15 08:45:19;;;;;;;30.00;11.85;;;;;;;-2.71;60.35;100110.34;4935820;29;20044;-86
2022/02/15 08:47:45;;;;;;;28.40;10.45;;;;;;;-2.86;60.95;100084.38;4904379;29;20046;-85
2022/02/15 08:50:12;;;;;;;30.17;9.35;;;;;;;-2.86;60.88;100097.44;4920121;29;20071;-84
2022/02/15 08:52:38;;;;;;;17.98;8.30;;;;;;;-2.85;61.05;100088.75;4920349;29;20054;-84
2022/02/15 08:55:06;;;;;;;21.90;9.60;;;;;;;-2.86;60.87;100086.97;4935888;29;20059;-84
2022/02/15 08:57:32;;;;;;;26.40;10.43;;;;;;;-2.71;60.92;100084.19;4904914;29;20050;-87
2022/02/15 08:59:58;;;;;;;26.40;11.48;;;;;;;-2.47;60.27;100100.41;4920179;29;20047;-84
2022/02/15 09:02:25;;;;;;;24.85;11.30;;;;;;;-2.34;59.98;100101.94;4919580;29;20074;-86
2022/02/15 09:04:51;;;;;;;23.67;10.32;;;;;;;-2.43;59.85;100089.00;4936103;29;20131;-84
2022/02/15 09:07:17;;;;;;;29.08;10.93;;;;;;;-2.48;60.33;100088.22;4919668;29;20043;-85
2022/02/15 09:09:43;;;;;;;23.95;9.20;;;;;;;-2.49;60.09;100092.56;4903863;29;20554;-84
2022/02/15 09:12:10;;;;;;;29.80;12.02;;;;;;;-2.33;60.27;100089.72;4951909;29;20073;-84
2022/02/15 09:14:36;;;;;;;30.80;10.90;;;;;;;-2.46;60.07;100089.03;4906579;29;20260;-82
2022/02/15 09:17:02;;;;;;;25.35;10.27;;;;;;;-2.29;59.56;100084.41;4973796;29;20043;-82
2022/02/15 09:19:29;;;;;;;17.20;8.25;;;;;;;-2.33;59.83;100089.72;4988729;28;20051;-84
2022/02/15 09:21:56;;;;;;;17.73;6.90;;;;;;;-2.26;59.68;100089.63;4938869;29;20043;-85
2022/02/15 09:24:22;;;;;;;17.73;8.48;;;;;;;-2.39;59.79;100088.06;4954356;29;20043;-86
2022/02/15 09:26:50;;;;;;;20.45;8.23;;;;;;;-2.43;60.06;100083.75;4954464;29;20052;-84
2022/02/15 09:29:16;;;;;;;22.60;9.00;;;;;;;-2.35;60.20;100088.88;4954719;28;20130;-85
2022/02/15 09:31:42;;;;;;;20.45;9.65;;;;;;;-2.44;60.16;100087.28;4922509;29;20049;-83
2022/02/15 09:34:10;;;;;;;17.30;8.63;;;;;;;-2.43;60.42;100086.38;4953774;28;20150;-84
2022/02/15 09:36:36;;;;;;;14.93;7.25;;;;;;;-2.69;60.64;100082.38;4938108;29;20051;-85
2022/02/15 09:39:03;;;;;;;16.20;8.00;;;;;;;-2.56;60.96;100087.44;4922277;29;20066;-86
2022/02/15 09:41:33;;;;;;;16.63;8.68;;;;;;;-2.52;61.13;100099.59;4922637;29;20054;-87
2022/02/15 09:44:04;;;;;;;15.82;8.63;;;;;;;-2.48;61.01;100101.31;4922846;29;20055;-84
2022/02/15 09:46:30;;;;;;;18.55;9.02;;;;;;;-2.43;60.72;100089.00;4953572;29;20060;-86
2022/02/15 09:48:56;;;;;;;13.75;7.50;;;;;;;-2.34;60.48;100101.94;4953841;29;20051;-88
2022/02/15 09:51:23;;;;;;;15.52;8.48;;;;;;;-2.21;60.60;100098.25;4955100;29;20149;-84
2022/02/15 09:53:49;;;;;;;16.80;8.60;;;;;;;-2.00;60.26;100088.28;4937549;29;20137;-86
2022/02/15 09:56:15;;;;;;;15.73;7.85;;;;;;;-1.80;59.68;100086.22;4937825;29;20042;-85
2022/02/15 09:58:42;;;;;;;18.58;9.25;;;;;;;-1.74;59.65;100080.84;4921708;29;20047;-85
2022/02/15 10:01:11;;;;;;;18.60;9.27;;;;;;;-1.77;59.85;100086.16;4921872;28;20161;-85
2022/02/15 10:03:56;;;;;;;18.48;8.93;;;;;;;-1.65;59.33;100094.69;4955072;29;20039;-85
2022/02/15 10:06:27;;;;;;;19.45;8.48;;;;;;;-1.84;59.53;100079.31;4922582;29;20046;-86
2022/02/15 10:08:57;;;;;;;17.80;8.45;;;;;;;-1.92;59.61;100089.03;4922918;29;20040;-84
2022/02/15 10:11:26;;;;;;;17.73;8.48;;;;;;;-1.89;59.18;100095.97;4953822;28;20469;-85
2022/02/15 10:13:52;;;;;;;15.00;8.47;;;;;;;-2.07;59.95;100086.66;4953413;29;20047;-85
2022/02/15 10:16:18;;;;;;;17.33;9.80;;;;;;;-2.23;60.17;100088.69;4950797;29;20698;-84
2022/02/15 10:18:44;;;;;;;14.55;8.45;;;;;;;-2.34;60.62;100083.59;4924001;29;20074;-86
2022/02/15 10:21:15;;;;;;;17.13;9.27;;;;;;;-2.34;61.08;100088.84;4908951;29;20059;-85
2022/02/15 10:23:41;;;;;;;15.63;8.18;;;;;;;-2.30;60.48;100105.38;4936398;29;20106;-85
2022/02/15 10:26:07;;;;;;;12.02;6.20;;;;;;;-2.36;60.24;100101.13;4954128;28;20067;-84
2022/02/15 10:28:33;;;;;;;15.18;8.35;;;;;;;-2.42;60.49;100101.19;4944403;29;20048;-85
2022/02/15 10:31:02;;;;;;;16.23;8.73;;;;;;;-2.59;60.44;100105.84;4927299;29;20138;-85
2022/02/15 10:33:30;;;;;;;13.43;7.63;;;;;;;-2.61;61.01;100115.44;4928188;29;20040;-85
2022/02/15 10:36:03;;;;;;;14.32;7.32;;;;;;;-2.60;60.83;100106.69;4922383;29;20116;-85
2022/02/15 10:38:32;;;;;;;15.65;8.15;;;;;;;-2.62;60.95;100108.50;4954643;29;20055;-84
2022/02/15 10:41:01;;;;;;;15.27;7.78;;;;;;;-2.52;60.24;100104.81;4941191;29;20054;-85
2022/02/15 10:43:28;;;;;;;12.67;6.27;;;;;;;-2.61;60.89;100111.06;4956845;29;20415;-84
2022/02/15 10:45:55;;;;;;;12.13;6.43;;;;;;;-2.74;60.93;100099.91;4940043;29;20112;-83
2022/02/15 10:48:31;;;;;;;15.75;8.02;;;;;;;-2.82;61.52;100106.13;4949543;29;20056;-85
2022/02/15 10:50:58;;;;;;;14.95;8.25;;;;;;;-2.73;61.50;100106.88;4893816;29;20508;-86
2022/02/15 10:53:24;;;;;;;14.48;7.35;;;;;;;-2.78;61.50;100106.09;4925794;29;20039;-86
2022/02/15 10:55:50;;;;;;;12.00;7.53;;;;;;;-2.54;61.45;100111.84;4896553;29;20122;-84
2022/02/15 10:58:18;;;;;;;17.25;7.57;;;;;;;-2.46;61.32;100109.97;4910372;29;20044;-86
2022/02/15 11:00:43;;;;;;;14.50;7.18;;;;;;;-2.60;61.03;100106.69;4938421;29;20484;-86
2022/02/15 11:03:10;;;;;;;11.27;7.40;;;;;;;-2.44;60.56;100108.22;4906341;29;20130;-86
2022/02/15 11:05:36;;;;;;;15.13;7.47;;;;;;;-2.58;60.75;100112.78;4921946;29;20111;-84
2022/02/15 11:08:02;;;;;;;13.52;7.40;;;;;;;-2.56;60.62;100118.84;4922534;29;20499;-86
2022/02/15 11:10:31;;;;;;;15.25;7.18;;;;;;;-2.53;60.66;100129.28;4906158;29;20050;-85
2022/02/15 11:12:58;;;;;;;17.00;7.93;;;;;;;-2.61;60.72;100116.31;4937986;29;20403;-86
2022/02/15 11:15:30;;;;;;;14.85;8.45;;;;;;;-2.68;61.33;100119.88;4921399;29;20067;-84
2022/02/15 11:18:07;;;;;;;16.50;7.70;;;;;;;-2.62;61.33;100118.94;4906870;29;20075;-87
2022/02/15 11:20:58;;;;;;;13.93;7.25;;;;;;;-2.50;60.90;100119.63;4923067;29;20130;-85
2022/02/15 11:23:26;;;;;;;10.02;6.28;;;;;;;-2.64;61.10;100125.94;4937647;29;20403;-85
2022/02/15 11:26:12;;;;;;;14.27;7.60;;;;;;;-2.61;61.06;100120.69;4906200;29;20039;-85
2022/02/15 11:28:51;;;;;;;10.40;6.68;;;;;;;-2.85;61.66;100111.41;4937135;29;20512;-87